sensor_id;sensor_type;location;lat;lon;timestamp;pressure;altitude;pressure_sealevel;temperature;humidity
73862;BME280;63459;51.456;-0.916;2023-05-03T00:00:21;102270.24;;;23.32;19.57
73862;BME280;63459;51.456;-0.916;2023-05-03T00:07:37;102268.55;;;22.91;19.73
73862;BME280;63459;51.456;-0.916;2023-05-03T00:10:03;102267.22;;;22.81;19.81
73862;BME280;63459;51.456;-0.916;2023-05-03T00:12:29;102268.03;;;22.77;19.84
73862;BME280;63459;51.456;-0.916;2023-05-03T00:14:53;102269.34;;;23.31;19.77
73862;BME280;63459;51.456;-0.916;2023-05-03T00:17:24;102269.56;;;22.80;19.83
73862;BME280;63459;51.456;-0.916;2023-05-03T00:19:44;102266.29;;;22.71;19.91
73862;BME280;63459;51.456;-0.916;2023-05-03T00:22:09;102265.78;;;22.74;19.91
73862;BME280;63459;51.456;-0.916;2023-05-03T00:24:34;102266.02;;;22.94;19.91
73862;BME280;63459;51.456;-0.916;2023-05-03T00:26:59;102270.47;;;22.75;19.87
73862;BME280;63459;51.456;-0.916;2023-05-03T00:29:25;102267.39;;;23.12;19.91
73862;BME280;63459;51.456;-0.916;2023-05-03T00:31:50;102268.23;;;22.86;19.93
73862;BME280;63459;51.456;-0.916;2023-05-03T00:34:15;102271.17;;;22.87;19.93
73862;BME280;63459;51.456;-0.916;2023-05-03T00:36:40;102277.58;;;22.40;19.96
73862;BME280;63459;51.456;-0.916;2023-05-03T00:39:06;102274.66;;;22.54;19.99
73862;BME280;63459;51.456;-0.916;2023-05-03T00:41:31;102267.37;;;22.53;19.99
73862;BME280;63459;51.456;-0.916;2023-05-03T00:43:57;102266.14;;;22.68;20.01
73862;BME280;63459;51.456;-0.916;2023-05-03T00:46:21;102267.09;;;22.89;20.03
73862;BME280;63459;51.456;-0.916;2023-05-03T00:48:47;102265.22;;;22.43;20.05
73862;BME280;63459;51.456;-0.916;2023-05-03T00:51:13;102263.92;;;22.61;20.07
73862;BME280;63459;51.456;-0.916;2023-05-03T00:53:43;102263.06;;;22.57;20.07
73862;BME280;63459;51.456;-0.916;2023-05-03T00:56:03;102257.63;;;22.56;20.04
73862;BME280;63459;51.456;-0.916;2023-05-03T00:58:29;102258.18;;;22.50;20.09
73862;BME280;63459;51.456;-0.916;2023-05-03T01:00:53;102258.62;;;22.26;20.10
73862;BME280;63459;51.456;-0.916;2023-05-03T01:03:19;102256.85;;;22.43;20.11
73862;BME280;63459;51.456;-0.916;2023-05-03T01:05:50;102250.71;;;22.40;20.12
73862;BME280;63459;51.456;-0.916;2023-05-03T01:08:13;102246.69;;;22.34;20.16
73862;BME280;63459;51.456;-0.916;2023-05-03T01:10:41;102246.80;;;22.26;20.21
73862;BME280;63459;51.456;-0.916;2023-05-03T01:13:06;102244.96;;;22.22;20.21
73862;BME280;63459;51.456;-0.916;2023-05-03T01:15:38;102244.84;;;22.19;20.26
73862;BME280;63459;51.456;-0.916;2023-05-03T01:17:56;102240.41;;;22.63;20.19
73862;BME280;63459;51.456;-0.916;2023-05-03T01:20:21;102239.93;;;22.15;20.22
73862;BME280;63459;51.456;-0.916;2023-05-03T01:22:46;102242.45;;;22.33;20.26
73862;BME280;63459;51.456;-0.916;2023-05-03T01:25:09;102238.72;;;22.06;20.28
73862;BME280;63459;51.456;-0.916;2023-05-03T01:27:32;102241.09;;;22.25;20.28
73862;BME280;63459;51.456;-0.916;2023-05-03T01:29:58;102235.25;;;22.35;20.36
73862;BME280;63459;51.456;-0.916;2023-05-03T01:32:30;102237.70;;;22.10;20.38
73862;BME280;63459;51.456;-0.916;2023-05-03T01:34:52;102240.09;;;22.11;20.38
73862;BME280;63459;51.456;-0.916;2023-05-03T01:37:15;102242.12;;;21.90;20.35
73862;BME280;63459;51.456;-0.916;2023-05-03T01:39:45;102239.43;;;22.32;20.35
73862;BME280;63459;51.456;-0.916;2023-05-03T01:42:05;102242.47;;;22.13;20.32
73862;BME280;63459;51.456;-0.916;2023-05-03T01:44:31;102243.78;;;22.34;20.29
73862;BME280;63459;51.456;-0.916;2023-05-03T01:46:56;102238.75;;;21.64;20.32
73862;BME280;63459;51.456;-0.916;2023-05-03T01:49:21;102242.99;;;22.43;20.39
73862;BME280;63459;51.456;-0.916;2023-05-03T01:51:46;102243.92;;;21.94;20.42
73862;BME280;63459;51.456;-0.916;2023-05-03T01:54:12;102239.11;;;22.09;20.45
73862;BME280;63459;51.456;-0.916;2023-05-03T01:56:37;102234.18;;;22.04;20.47
73862;BME280;63459;51.456;-0.916;2023-05-03T01:59:03;102237.11;;;22.26;20.47
73862;BME280;63459;51.456;-0.916;2023-05-03T02:01:28;102235.25;;;21.85;20.44
73862;BME280;63459;51.456;-0.916;2023-05-03T02:03:53;102237.78;;;21.83;20.42
73862;BME280;63459;51.456;-0.916;2023-05-03T02:06:18;102239.02;;;21.56;20.45
73862;BME280;63459;51.456;-0.916;2023-05-03T02:11:09;102234.42;;;21.54;20.46
73862;BME280;63459;51.456;-0.916;2023-05-03T02:13:36;102233.55;;;21.73;20.44
73862;BME280;63459;51.456;-0.916;2023-05-03T02:16:00;102229.94;;;21.71;20.42
73862;BME280;63459;51.456;-0.916;2023-05-03T02:18:25;102232.04;;;21.89;20.42
73862;BME280;63459;51.456;-0.916;2023-05-03T02:20:50;102233.18;;;21.78;20.48
73862;BME280;63459;51.456;-0.916;2023-05-03T02:23:15;102232.74;;;21.27;20.53
73862;BME280;63459;51.456;-0.916;2023-05-03T02:37:47;102221.00;;;20.99;20.68
73862;BME280;63459;51.456;-0.916;2023-05-03T02:40:12;102219.67;;;21.40;20.70
73862;BME280;63459;51.456;-0.916;2023-05-03T02:42:39;102219.11;;;21.35;20.73
73862;BME280;63459;51.456;-0.916;2023-05-03T02:45:03;102219.73;;;21.58;20.75
73862;BME280;63459;51.456;-0.916;2023-05-03T02:47:29;102217.56;;;21.54;20.75
73862;BME280;63459;51.456;-0.916;2023-05-03T02:49:54;102215.35;;;21.28;20.78
73862;BME280;63459;51.456;-0.916;2023-05-03T02:52:19;102213.03;;;21.46;20.82
73862;BME280;63459;51.456;-0.916;2023-05-03T02:54:46;102214.92;;;21.45;20.83
73862;BME280;63459;51.456;-0.916;2023-05-03T02:57:09;102214.89;;;21.44;20.85
73862;BME280;63459;51.456;-0.916;2023-05-03T02:59:35;102218.00;;;21.29;20.83
73862;BME280;63459;51.456;-0.916;2023-05-03T03:04:25;102210.77;;;21.82;20.71
73862;BME280;63459;51.456;-0.916;2023-05-03T03:06:50;102210.76;;;21.74;20.77
73862;BME280;63459;51.456;-0.916;2023-05-03T03:09:15;102211.15;;;21.30;20.79
73862;BME280;63459;51.456;-0.916;2023-05-03T03:11:41;102213.84;;;21.65;20.86
73862;BME280;63459;51.456;-0.916;2023-05-03T03:14:06;102211.96;;;21.58;20.90
73862;BME280;63459;51.456;-0.916;2023-05-03T03:16:37;102211.28;;;21.13;20.92
73862;BME280;63459;51.456;-0.916;2023-05-03T03:18:57;102207.35;;;21.38;20.90
73862;BME280;63459;51.456;-0.916;2023-05-03T03:21:22;102206.62;;;21.37;20.92
73862;BME280;63459;51.456;-0.916;2023-05-03T03:26:14;102197.48;;;21.53;20.94
73862;BME280;63459;51.456;-0.916;2023-05-03T03:28:39;102193.09;;;21.13;20.90
73862;BME280;63459;51.456;-0.916;2023-05-03T03:31:09;102186.92;;;21.12;20.89
73862;BME280;63459;51.456;-0.916;2023-05-03T03:33:30;102185.61;;;20.90;20.90
73862;BME280;63459;51.456;-0.916;2023-05-03T03:35:54;102184.65;;;20.93;20.88
73862;BME280;63459;51.456;-0.916;2023-05-03T03:38:19;102181.91;;;21.12;20.90
73862;BME280;63459;51.456;-0.916;2023-05-03T03:40:44;102176.41;;;21.35;20.90
73862;BME280;63459;51.456;-0.916;2023-05-03T03:43:10;102174.71;;;21.57;20.90
73862;BME280;63459;51.456;-0.916;2023-05-03T03:45:34;102173.91;;;21.14;20.89
73862;BME280;63459;51.456;-0.916;2023-05-03T03:47:59;102168.03;;;21.56;20.88
73862;BME280;63459;51.456;-0.916;2023-05-03T03:50:25;102168.98;;;21.12;20.86
73862;BME280;63459;51.456;-0.916;2023-05-03T03:52:52;102165.44;;;21.30;20.88
73862;BME280;63459;51.456;-0.916;2023-05-03T03:55:16;102165.42;;;20.91;20.86
73862;BME280;63459;51.456;-0.916;2023-05-03T03:57:41;102168.03;;;20.85;20.88
73862;BME280;63459;51.456;-0.916;2023-05-03T04:00:10;102169.81;;;21.10;20.86
73862;BME280;63459;51.456;-0.916;2023-05-03T04:02:31;102168.74;;;21.49;20.92
73862;BME280;63459;51.456;-0.916;2023-05-03T04:04:57;102165.70;;;21.16;21.02
73862;BME280;63459;51.456;-0.916;2023-05-03T04:07:22;102170.53;;;21.28;21.09
73862;BME280;63459;51.456;-0.916;2023-05-03T04:09:48;102170.78;;;21.19;21.19
73862;BME280;63459;51.456;-0.916;2023-05-03T04:12:14;102168.51;;;20.63;21.29
73862;BME280;63459;51.456;-0.916;2023-05-03T04:14:39;102161.84;;;20.63;21.31
73862;BME280;63459;51.456;-0.916;2023-05-03T04:17:04;102159.98;;;20.63;21.33
73862;BME280;63459;51.456;-0.916;2023-05-03T04:19:30;102159.38;;;20.78;21.42
73862;BME280;63459;51.456;-0.916;2023-05-03T04:22:01;102158.04;;;21.03;21.39
73862;BME280;63459;51.456;-0.916;2023-05-03T04:24:20;102157.28;;;20.99;21.42
73862;BME280;63459;51.456;-0.916;2023-05-03T04:26:46;102160.36;;;20.79;21.42
73862;BME280;63459;51.456;-0.916;2023-05-03T04:29:11;102158.95;;;20.80;21.42
73862;BME280;63459;51.456;-0.916;2023-05-03T04:31:37;102161.74;;;20.78;21.43
73862;BME280;63459;51.456;-0.916;2023-05-03T04:34:04;102160.25;;;21.01;21.47
73862;BME280;63459;51.456;-0.916;2023-05-03T04:38:54;102156.71;;;20.93;21.53
73862;BME280;63459;51.456;-0.916;2023-05-03T04:41:17;102153.34;;;20.93;21.53
73862;BME280;63459;51.456;-0.916;2023-05-03T04:43:42;102152.07;;;20.87;21.61
73862;BME280;63459;51.456;-0.916;2023-05-03T04:46:08;102154.81;;;20.63;21.65
73862;BME280;63459;51.456;-0.916;2023-05-03T04:48:38;102156.24;;;20.55;21.75
73862;BME280;63459;51.456;-0.916;2023-05-03T04:53:23;102163.24;;;20.67;21.87
73862;BME280;63459;51.456;-0.916;2023-05-03T04:55:51;102161.87;;;20.35;21.95
73862;BME280;63459;51.456;-0.916;2023-05-03T04:58:14;102169.33;;;20.74;22.05
73862;BME280;63459;51.456;-0.916;2023-05-03T05:00:40;102165.90;;;20.23;22.10
73862;BME280;63459;51.456;-0.916;2023-05-03T05:03:05;102169.87;;;20.68;22.14
73862;BME280;63459;51.456;-0.916;2023-05-03T05:05:30;102169.34;;;20.13;22.25
73862;BME280;63459;51.456;-0.916;2023-05-03T05:07:56;102172.92;;;20.51;22.31
73862;BME280;63459;51.456;-0.916;2023-05-03T05:10:21;102173.91;;;20.26;22.35
73862;BME280;63459;51.456;-0.916;2023-05-03T05:12:46;102172.33;;;20.45;22.39
73862;BME280;63459;51.456;-0.916;2023-05-03T05:15:13;102175.58;;;19.99;22.46
73862;BME280;63459;51.456;-0.916;2023-05-03T05:17:42;102176.90;;;20.72;22.43
73862;BME280;63459;51.456;-0.916;2023-05-03T05:20:03;102180.44;;;20.60;22.37
73862;BME280;63459;51.456;-0.916;2023-05-03T05:22:28;102178.46;;;20.68;22.31
73862;BME280;63459;51.456;-0.916;2023-05-03T05:24:54;102180.74;;;20.57;22.28
73862;BME280;63459;51.456;-0.916;2023-05-03T05:27:19;102173.53;;;20.34;21.07
73862;BME280;63459;51.456;-0.916;2023-05-03T05:29:45;102171.27;;;21.77;20.21
73862;BME280;63459;51.456;-0.916;2023-05-03T05:32:10;102174.53;;;21.78;20.48
73862;BME280;63459;51.456;-0.916;2023-05-03T05:34:36;102179.12;;;21.36;21.04
73862;BME280;63459;51.456;-0.916;2023-05-03T05:37:00;102175.79;;;22.01;21.24
73862;BME280;63459;51.456;-0.916;2023-05-03T05:39:25;102172.79;;;21.42;21.43
73862;BME280;63459;51.456;-0.916;2023-05-03T05:44:18;102175.65;;;21.35;21.57
73862;BME280;63459;51.456;-0.916;2023-05-03T05:46:41;102184.64;;;21.44;21.55
73862;BME280;63459;51.456;-0.916;2023-05-03T05:51:32;102188.42;;;22.22;20.99
73862;BME280;63459;51.456;-0.916;2023-05-03T05:53:58;102182.78;;;23.01;20.57
73862;BME280;63459;51.456;-0.916;2023-05-03T05:56:23;102186.80;;;23.25;19.99
73862;BME280;63459;51.456;-0.916;2023-05-03T06:01:13;102191.32;;;25.06;18.25
73862;BME280;63459;51.456;-0.916;2023-05-03T06:03:39;102185.54;;;25.85;17.89
73862;BME280;63459;51.456;-0.916;2023-05-03T06:06:06;102190.77;;;26.36;17.32
73862;BME280;63459;51.456;-0.916;2023-05-03T06:08:35;102193.94;;;26.01;17.08
73862;BME280;63459;51.456;-0.916;2023-05-03T06:10:55;102196.90;;;26.60;16.40
73862;BME280;63459;51.456;-0.916;2023-05-03T06:13:22;102196.89;;;26.85;16.13
73862;BME280;63459;51.456;-0.916;2023-05-03T06:15:52;102200.78;;;27.78;15.61
73862;BME280;63459;51.456;-0.916;2023-05-03T06:18:12;102202.20;;;27.91;15.34
73862;BME280;63459;51.456;-0.916;2023-05-03T06:20:38;102200.43;;;28.48;14.93
73862;BME280;63459;51.456;-0.916;2023-05-03T06:23:03;102202.05;;;28.85;14.65
73862;BME280;63459;51.456;-0.916;2023-05-03T06:25:30;102201.12;;;28.69;14.37
73862;BME280;63459;51.456;-0.916;2023-05-03T06:27:55;102202.24;;;28.99;14.32
73862;BME280;63459;51.456;-0.916;2023-05-03T06:30:20;102195.99;;;29.69;14.01
73862;BME280;63459;51.456;-0.916;2023-05-03T06:32:46;102191.44;;;29.77;13.72
73862;BME280;63459;51.456;-0.916;2023-05-03T06:35:14;102194.45;;;30.08;13.43
73862;BME280;63459;51.456;-0.916;2023-05-03T06:37:36;102191.73;;;30.06;13.38
73862;BME280;63459;51.456;-0.916;2023-05-03T06:40:02;102187.38;;;30.25;13.28
73862;BME280;63459;51.456;-0.916;2023-05-03T06:42:27;102184.11;;;30.52;13.13
73862;BME280;63459;51.456;-0.916;2023-05-03T06:47:19;102188.74;;;30.63;13.03
73862;BME280;63459;51.456;-0.916;2023-05-03T06:49:43;102182.55;;;30.70;12.92
73862;BME280;63459;51.456;-0.916;2023-05-03T06:52:08;102179.49;;;30.67;12.87
73862;BME280;63459;51.456;-0.916;2023-05-03T06:54:34;102177.07;;;30.33;13.07
73862;BME280;63459;51.456;-0.916;2023-05-03T06:56:58;102170.43;;;30.56;13.07
73862;BME280;63459;51.456;-0.916;2023-05-03T06:59:24;102170.62;;;30.67;13.06
73862;BME280;63459;51.456;-0.916;2023-05-03T07:01:49;102168.03;;;30.57;13.17
73862;BME280;63459;51.456;-0.916;2023-05-03T07:04:15;102171.14;;;29.98;13.34
73862;BME280;63459;51.456;-0.916;2023-05-03T07:06:40;102168.19;;;29.86;13.61
73862;BME280;63459;51.456;-0.916;2023-05-03T07:09:06;102162.19;;;29.55;13.71
73862;BME280;63459;51.456;-0.916;2023-05-03T07:11:31;102161.12;;;29.15;13.98
73862;BME280;63459;51.456;-0.916;2023-05-03T07:13:57;102166.53;;;29.48;14.16
73862;BME280;63459;51.456;-0.916;2023-05-03T07:16:23;102170.57;;;29.23;14.43
73862;BME280;63459;51.456;-0.916;2023-05-03T07:18:48;102175.20;;;27.83;14.66
73862;BME280;63459;51.456;-0.916;2023-05-03T07:21:13;102180.55;;;28.42;14.79
73862;BME280;63459;51.456;-0.916;2023-05-03T07:23:44;102174.22;;;27.88;14.97
73862;BME280;63459;51.456;-0.916;2023-05-03T07:26:05;102168.86;;;27.55;15.22
73862;BME280;63459;51.456;-0.916;2023-05-03T07:28:30;102166.40;;;27.98;15.48
73862;BME280;63459;51.456;-0.916;2023-05-03T07:33:20;102167.69;;;27.04;15.81
73862;BME280;63459;51.456;-0.916;2023-05-03T07:35:47;102170.97;;;27.19;15.88
73862;BME280;63459;51.456;-0.916;2023-05-03T07:38:17;102166.78;;;27.44;15.99
73862;BME280;63459;51.456;-0.916;2023-05-03T07:40:37;102163.55;;;27.08;16.09
73862;BME280;63459;51.456;-0.916;2023-05-03T07:47:59;102162.87;;;27.29;16.18
73862;BME280;63459;51.456;-0.916;2023-05-03T07:50:21;102161.14;;;26.60;16.03
73862;BME280;63459;51.456;-0.916;2023-05-03T07:52:46;102163.66;;;26.82;16.04
73862;BME280;63459;51.456;-0.916;2023-05-03T07:57:36;102162.85;;;27.24;16.03
73862;BME280;63459;51.456;-0.916;2023-05-03T08:00:02;102155.33;;;27.05;15.98
73862;BME280;63459;51.456;-0.916;2023-05-03T08:04:52;102158.16;;;27.02;15.82
73862;BME280;63459;51.456;-0.916;2023-05-03T08:07:17;102153.24;;;26.78;15.93
73862;BME280;63459;51.456;-0.916;2023-05-03T08:09:50;102144.87;;;27.19;16.00
73862;BME280;63459;51.456;-0.916;2023-05-03T08:12:08;102144.99;;;27.35;15.83
73862;BME280;63459;51.456;-0.916;2023-05-03T08:19:25;102140.44;;;27.02;15.79
73862;BME280;63459;51.456;-0.916;2023-05-03T08:21:51;102137.62;;;27.10;15.82
73862;BME280;63459;51.456;-0.916;2023-05-03T08:24:16;102138.91;;;26.75;15.71
73862;BME280;63459;51.456;-0.916;2023-05-03T08:26:46;102144.40;;;26.95;15.69
73862;BME280;63459;51.456;-0.916;2023-05-03T08:29:06;102138.64;;;27.32;15.70
73862;BME280;63459;51.456;-0.916;2023-05-03T08:31:31;102135.44;;;27.34;15.72
73862;BME280;63459;51.456;-0.916;2023-05-03T08:33:57;102139.89;;;26.70;15.70
73862;BME280;63459;51.456;-0.916;2023-05-03T08:36:22;102138.99;;;26.86;15.59
73862;BME280;63459;51.456;-0.916;2023-05-03T08:38:48;102141.16;;;26.74;15.74
73862;BME280;63459;51.456;-0.916;2023-05-03T08:41:20;102140.27;;;26.84;15.76
73862;BME280;63459;51.456;-0.916;2023-05-03T08:43:42;102135.57;;;26.62;15.82
73862;BME280;63459;51.456;-0.916;2023-05-03T08:46:05;102133.93;;;26.79;15.74
73862;BME280;63459;51.456;-0.916;2023-05-03T08:48:30;102129.46;;;26.70;15.76
73862;BME280;63459;51.456;-0.916;2023-05-03T08:50:57;102127.98;;;26.94;15.80
73862;BME280;63459;51.456;-0.916;2023-05-03T08:53:20;102126.71;;;27.00;15.83
73862;BME280;63459;51.456;-0.916;2023-05-03T08:55:46;102131.45;;;26.89;15.83
73862;BME280;63459;51.456;-0.916;2023-05-03T08:58:12;102131.31;;;26.58;15.87
73862;BME280;63459;51.456;-0.916;2023-05-03T09:00:37;102128.78;;;26.80;15.84
73862;BME280;63459;51.456;-0.916;2023-05-03T09:03:02;102126.17;;;26.81;15.97
73862;BME280;63459;51.456;-0.916;2023-05-03T09:05:34;102122.37;;;26.57;15.91
73862;BME280;63459;51.456;-0.916;2023-05-03T09:07:59;102121.48;;;26.41;15.87
73862;BME280;63459;51.456;-0.916;2023-05-03T09:10:22;102116.50;;;26.48;15.87
73862;BME280;63459;51.456;-0.916;2023-05-03T09:17:35;102113.90;;;26.81;15.82
73862;BME280;63459;51.456;-0.916;2023-05-03T09:19:59;102112.95;;;27.13;15.65
73862;BME280;63459;51.456;-0.916;2023-05-03T09:22:27;102112.15;;;27.53;15.76
73862;BME280;63459;51.456;-0.916;2023-05-03T09:24:56;102110.64;;;27.39;15.80
73862;BME280;63459;51.456;-0.916;2023-05-03T09:27:17;102115.72;;;27.19;15.78
73862;BME280;63459;51.456;-0.916;2023-05-03T09:29:40;102113.77;;;27.01;15.68
73862;BME280;63459;51.456;-0.916;2023-05-03T09:32:06;102115.32;;;27.10;15.77
73862;BME280;63459;51.456;-0.916;2023-05-03T09:34:34;102112.81;;;27.04;15.99
73862;BME280;63459;51.456;-0.916;2023-05-03T09:37:04;102113.18;;;27.06;15.83
73862;BME280;63459;51.456;-0.916;2023-05-03T09:39:23;102106.48;;;27.02;15.99
73862;BME280;63459;51.456;-0.916;2023-05-03T09:41:48;102109.91;;;26.85;16.03
73862;BME280;63459;51.456;-0.916;2023-05-03T09:44:12;102113.12;;;27.44;16.02
73862;BME280;63459;51.456;-0.916;2023-05-03T09:46:39;102105.70;;;26.96;15.96
73862;BME280;63459;51.456;-0.916;2023-05-03T09:49:04;102100.28;;;27.32;15.88
73862;BME280;63459;51.456;-0.916;2023-05-03T09:51:29;102110.18;;;26.98;15.67
73862;BME280;63459;51.456;-0.916;2023-05-03T09:53:55;102102.18;;;27.51;15.57
73862;BME280;63459;51.456;-0.916;2023-05-03T09:56:19;102103.50;;;27.94;15.46
73862;BME280;63459;51.456;-0.916;2023-05-03T09:58:51;102110.35;;;27.30;15.58
73862;BME280;63459;51.456;-0.916;2023-05-03T10:01:11;102100.92;;;27.23;15.62
73862;BME280;63459;51.456;-0.916;2023-05-03T10:03:40;102103.15;;;27.00;15.64
73862;BME280;63459;51.456;-0.916;2023-05-03T10:06:05;102104.78;;;26.53;15.53
73862;BME280;63459;51.456;-0.916;2023-05-03T10:08:33;102100.03;;;26.70;15.61
73862;BME280;63459;51.456;-0.916;2023-05-03T10:10:53;102101.42;;;26.98;15.67
73862;BME280;63459;51.456;-0.916;2023-05-03T10:13:21;102094.90;;;27.25;15.73
73862;BME280;63459;51.456;-0.916;2023-05-03T10:15:45;102090.62;;;27.72;15.53
73862;BME280;63459;51.456;-0.916;2023-05-03T10:18:17;102098.69;;;27.14;15.50
73862;BME280;63459;51.456;-0.916;2023-05-03T10:20:39;102093.25;;;27.34;15.56
73862;BME280;63459;51.456;-0.916;2023-05-03T10:23:07;102087.95;;;27.63;15.66
73862;BME280;63459;51.456;-0.916;2023-05-03T10:25:25;102085.18;;;27.53;15.60
73862;BME280;63459;51.456;-0.916;2023-05-03T10:27:51;102089.68;;;27.60;15.53
73862;BME280;63459;51.456;-0.916;2023-05-03T10:30:27;102087.16;;;27.65;15.57
73862;BME280;63459;51.456;-0.916;2023-05-03T10:32:43;102086.59;;;27.47;15.50
73862;BME280;63459;51.456;-0.916;2023-05-03T10:35:12;102082.04;;;27.75;15.48
73862;BME280;63459;51.456;-0.916;2023-05-03T10:37:33;102081.65;;;27.88;15.43
73862;BME280;63459;51.456;-0.916;2023-05-03T10:40:09;102077.59;;;27.72;15.47
73862;BME280;63459;51.456;-0.916;2023-05-03T10:44:51;102065.95;;;27.67;15.37
73862;BME280;63459;51.456;-0.916;2023-05-03T10:47:18;102061.27;;;27.95;15.34
73862;BME280;63459;51.456;-0.916;2023-05-03T10:49:42;102068.10;;;27.49;15.22
73862;BME280;63459;51.456;-0.916;2023-05-03T10:54:34;102052.88;;;27.44;15.11
73862;BME280;63459;51.456;-0.916;2023-05-03T10:56:59;102047.04;;;27.69;15.13
73862;BME280;63459;51.456;-0.916;2023-05-03T10:59:24;102037.58;;;27.61;15.13
73862;BME280;63459;51.456;-0.916;2023-05-03T11:04:25;102042.45;;;28.06;14.79
73862;BME280;63459;51.456;-0.916;2023-05-03T11:06:41;102028.42;;;28.37;14.61
73862;BME280;63459;51.456;-0.916;2023-05-03T11:09:11;102026.19;;;28.29;14.65
73862;BME280;63459;51.456;-0.916;2023-05-03T11:11:32;102022.34;;;27.91;14.74
73862;BME280;63459;51.456;-0.916;2023-05-03T11:13:58;102025.37;;;28.12;14.47
73862;BME280;63459;51.456;-0.916;2023-05-03T11:16:23;102022.11;;;28.07;14.35
73862;BME280;63459;51.456;-0.916;2023-05-03T11:18:48;102015.95;;;28.19;14.36
73862;BME280;63459;51.456;-0.916;2023-05-03T11:21:14;102011.13;;;28.79;14.05
73862;BME280;63459;51.456;-0.916;2023-05-03T11:23:41;102015.09;;;28.18;14.10
73862;BME280;63459;51.456;-0.916;2023-05-03T11:26:05;102011.17;;;28.82;13.92
73862;BME280;63459;51.456;-0.916;2023-05-03T11:28:31;102007.08;;;28.14;13.97
73862;BME280;63459;51.456;-0.916;2023-05-03T11:30:56;101998.82;;;28.40;14.00
73862;BME280;63459;51.456;-0.916;2023-05-03T11:33:21;102000.33;;;28.16;14.08
73862;BME280;63459;51.456;-0.916;2023-05-03T11:35:46;101997.53;;;28.76;14.01
73862;BME280;63459;51.456;-0.916;2023-05-03T11:38:12;101996.61;;;28.88;13.97
73862;BME280;63459;51.456;-0.916;2023-05-03T11:40:38;101988.13;;;28.40;13.92
73862;BME280;63459;51.456;-0.916;2023-05-03T11:43:03;101985.71;;;28.60;13.85
73862;BME280;63459;51.456;-0.916;2023-05-03T11:45:31;101979.65;;;28.61;13.80
73862;BME280;63459;51.456;-0.916;2023-05-03T11:47:55;101977.68;;;28.20;13.89
73862;BME280;63459;51.456;-0.916;2023-05-03T11:50:25;101981.44;;;28.46;13.71
73862;BME280;63459;51.456;-0.916;2023-05-03T11:52:46;101973.56;;;28.54;13.88
73862;BME280;63459;51.456;-0.916;2023-05-03T11:55:11;101966.56;;;28.29;13.90
73862;BME280;63459;51.456;-0.916;2023-05-03T11:57:38;101969.99;;;28.32;13.77
73862;BME280;63459;51.456;-0.916;2023-05-03T12:00:09;101971.47;;;28.80;13.80
73862;BME280;63459;51.456;-0.916;2023-05-03T12:02:27;101971.82;;;28.67;13.76
73862;BME280;63459;51.456;-0.916;2023-05-03T12:04:56;101967.63;;;28.20;13.62
73862;BME280;63459;51.456;-0.916;2023-05-03T12:07:18;101965.42;;;28.63;13.50
73862;BME280;63459;51.456;-0.916;2023-05-03T12:12:08;101965.82;;;28.76;13.47
73862;BME280;63459;51.456;-0.916;2023-05-03T12:16:59;101949.04;;;28.41;13.64
73862;BME280;63459;51.456;-0.916;2023-05-03T12:19:24;101955.09;;;28.23;13.57
73862;BME280;63459;51.456;-0.916;2023-05-03T12:21:49;101943.77;;;28.24;13.43
73862;BME280;63459;51.456;-0.916;2023-05-03T12:24:15;101945.48;;;28.03;13.56
73862;BME280;63459;51.456;-0.916;2023-05-03T12:26:41;101939.39;;;28.92;13.67
73862;BME280;63459;51.456;-0.916;2023-05-03T12:29:06;101931.32;;;28.56;13.71
73862;BME280;63459;51.456;-0.916;2023-05-03T12:31:32;101926.46;;;28.60;13.99
73862;BME280;63459;51.456;-0.916;2023-05-03T12:33:57;101931.28;;;28.93;13.91
73862;BME280;63459;51.456;-0.916;2023-05-03T12:36:22;101921.23;;;28.76;13.77
73862;BME280;63459;51.456;-0.916;2023-05-03T12:38:47;101928.53;;;28.58;13.60
73862;BME280;63459;51.456;-0.916;2023-05-03T12:41:13;101919.86;;;28.08;13.56
73862;BME280;63459;51.456;-0.916;2023-05-03T12:43:39;101922.23;;;28.25;13.41
73862;BME280;63459;51.456;-0.916;2023-05-03T12:46:05;101913.08;;;28.58;13.33
73862;BME280;63459;51.456;-0.916;2023-05-03T12:48:30;101911.47;;;28.77;13.18
73862;BME280;63459;51.456;-0.916;2023-05-03T12:55:46;101901.80;;;28.13;13.28
73862;BME280;63459;51.456;-0.916;2023-05-03T12:58:11;101903.82;;;28.21;13.32
73862;BME280;63459;51.456;-0.916;2023-05-03T13:00:36;101898.07;;;28.51;13.32
73862;BME280;63459;51.456;-0.916;2023-05-03T13:03:02;101891.46;;;28.83;13.39
73862;BME280;63459;51.456;-0.916;2023-05-03T13:05:33;101900.86;;;28.41;13.43
73862;BME280;63459;51.456;-0.916;2023-05-03T13:07:54;101887.13;;;28.61;13.44
73862;BME280;63459;51.456;-0.916;2023-05-03T13:10:20;101895.03;;;28.66;13.40
73862;BME280;63459;51.456;-0.916;2023-05-03T13:12:45;101889.62;;;28.78;13.22
73862;BME280;63459;51.456;-0.916;2023-05-03T13:15:10;101890.15;;;28.75;13.19
73862;BME280;63459;51.456;-0.916;2023-05-03T13:17:36;101888.58;;;28.73;13.27
73862;BME280;63459;51.456;-0.916;2023-05-03T13:20:00;101884.38;;;29.15;13.18
73862;BME280;63459;51.456;-0.916;2023-05-03T13:22:28;101885.34;;;28.77;13.08
73862;BME280;63459;51.456;-0.916;2023-05-03T13:24:51;101880.72;;;28.94;13.07
73862;BME280;63459;51.456;-0.916;2023-05-03T13:27:20;101874.92;;;28.82;13.09
73862;BME280;63459;51.456;-0.916;2023-05-03T13:29:44;101868.73;;;28.33;13.13
73862;BME280;63459;51.456;-0.916;2023-05-03T13:32:08;101867.02;;;28.54;13.09
73862;BME280;63459;51.456;-0.916;2023-05-03T13:34:34;101859.55;;;28.41;13.15
73862;BME280;63459;51.456;-0.916;2023-05-03T13:37:01;101860.10;;;28.61;13.21
73862;BME280;63459;51.456;-0.916;2023-05-03T13:39:24;101854.08;;;28.57;13.14
73862;BME280;63459;51.456;-0.916;2023-05-03T13:41:50;101855.72;;;28.64;13.09
73862;BME280;63459;51.456;-0.916;2023-05-03T13:44:15;101855.50;;;28.84;13.08
73862;BME280;63459;51.456;-0.916;2023-05-03T13:46:40;101845.17;;;28.17;13.03